createdAt,value
2018-07-22T00:02:01.252Z,7.53
2018-07-22T00:04:29.335Z,8.83
2018-07-22T00:06:57.465Z,8.63
2018-07-22T00:09:25.544Z,7.97
2018-07-22T00:11:53.752Z,7.93
2018-07-22T00:14:21.827Z,7.73
2018-07-22T00:16:49.907Z,8.00
2018-07-22T00:19:18.012Z,8.50
2018-07-22T00:21:46.107Z,7.07
2018-07-22T00:24:14.219Z,7.30
2018-07-22T00:26:48.223Z,8.00
2018-07-22T00:29:16.364Z,6.93
2018-07-22T00:31:44.451Z,7.97
2018-07-22T00:34:12.535Z,6.80
2018-07-22T00:36:40.647Z,8.10
2018-07-22T00:39:10.186Z,9.20
2018-07-22T00:41:38.283Z,7.60
2018-07-22T00:44:06.346Z,8.07
2018-07-22T00:46:34.451Z,9.73
2018-07-22T00:49:02.594Z,9.00
2018-07-22T00:51:30.708Z,11.13
2018-07-22T00:53:58.816Z,10.80
2018-07-22T00:56:26.906Z,9.60
2018-07-22T00:58:54.988Z,10.57
2018-07-22T01:01:23.075Z,10.70
2018-07-22T01:03:51.354Z,9.17
2018-07-22T01:06:19.417Z,8.30
2018-07-22T01:08:47.510Z,9.00
2018-07-22T01:11:15.593Z,9.57
2018-07-22T01:13:43.723Z,9.90
2018-07-22T01:16:11.804Z,10.20
2018-07-22T01:18:40.241Z,9.13
2018-07-22T01:21:08.325Z,13.60
2018-07-22T01:23:36.423Z,9.63
2018-07-22T01:26:04.525Z,6.93
2018-07-22T01:28:32.607Z,7.40
2018-07-22T01:31:00.670Z,6.60
2018-07-22T01:33:28.743Z,7.07
2018-07-22T01:35:56.830Z,7.40
2018-07-22T01:38:25.134Z,8.83
2018-07-22T01:40:53.360Z,8.10
2018-07-22T01:43:21.610Z,8.00
2018-07-22T01:45:49.662Z,7.73
2018-07-22T01:48:17.762Z,7.17
2018-07-22T01:50:45.841Z,5.93
2018-07-22T01:53:13.938Z,6.90
2018-07-22T01:55:42.019Z,9.53
2018-07-22T01:58:10.145Z,6.23
2018-07-22T02:00:38.227Z,6.00
2018-07-22T02:03:06.327Z,7.10
2018-07-22T02:05:34.414Z,6.80
2018-07-22T02:08:02.501Z,10.77
2018-07-22T02:10:30.588Z,6.23
2018-07-22T02:12:58.646Z,7.90
2018-07-22T02:15:26.755Z,9.30
2018-07-22T02:17:54.932Z,9.07
2018-07-22T02:20:23.265Z,8.70
2018-07-22T02:22:51.398Z,8.33
2018-07-22T02:25:19.502Z,7.73
2018-07-22T02:27:47.596Z,8.27
2018-07-22T02:30:15.675Z,8.30
2018-07-22T02:32:43.774Z,7.30
2018-07-22T02:35:11.866Z,7.60
2018-07-22T02:37:40.027Z,7.77
2018-07-22T02:40:08.265Z,7.40
2018-07-22T02:42:36.353Z,7.10
2018-07-22T02:45:04.434Z,7.73
2018-07-22T02:47:32.516Z,6.83
2018-07-22T02:50:00.643Z,7.00
2018-07-22T02:52:28.718Z,7.40
2018-07-22T02:54:56.835Z,7.70
2018-07-22T02:57:24.926Z,9.37
2018-07-22T02:59:53.017Z,8.50
2018-07-22T03:02:21.107Z,6.93
2018-07-22T03:04:49.185Z,8.63
2018-07-22T03:07:17.296Z,7.30
2018-07-22T03:09:45.421Z,8.37
2018-07-22T03:12:13.512Z,11.00
2018-07-22T03:14:41.614Z,8.30
2018-07-22T03:17:11.853Z,7.50
2018-07-22T03:19:39.964Z,9.20
2018-07-22T03:22:08.115Z,8.83
2018-07-22T03:24:36.253Z,9.67
2018-07-22T03:27:04.351Z,7.77
2018-07-22T03:29:32.428Z,6.17
2018-07-22T03:32:00.490Z,7.70
2018-07-22T03:34:28.589Z,7.40
2018-07-22T03:36:56.664Z,7.57
2018-07-22T03:39:24.758Z,7.23
2018-07-22T03:41:52.851Z,7.57
2018-07-22T03:44:21.406Z,6.97
2018-07-22T03:46:49.531Z,8.00
2018-07-22T03:49:17.626Z,7.80
2018-07-22T03:51:45.684Z,7.97
2018-07-22T03:54:13.776Z,8.67
2018-07-22T03:56:41.870Z,7.40
2018-07-22T03:59:10.201Z,7.33
2018-07-22T04:01:38.475Z,8.33
2018-07-22T04:04:06.614Z,8.33
2018-07-22T04:06:34.664Z,7.07
2018-07-22T04:09:02.784Z,8.40
2018-07-22T04:11:30.866Z,8.90
2018-07-22T04:13:58.975Z,8.10
2018-07-22T04:16:27.291Z,9.20
2018-07-22T04:18:55.372Z,8.80
2018-07-22T04:21:24.489Z,10.60
2018-07-22T04:23:52.568Z,7.90
2018-07-22T04:26:21.456Z,10.00
2018-07-22T04:28:50.028Z,7.63
2018-07-22T04:31:18.206Z,8.37
2018-07-22T04:33:46.348Z,9.23
2018-07-22T04:36:14.411Z,9.20
2018-07-22T04:38:43.066Z,8.10
2018-07-22T04:41:11.155Z,7.73
2018-07-22T04:43:39.231Z,8.87
2018-07-22T04:46:07.371Z,8.10
2018-07-22T04:48:35.459Z,9.50
2018-07-22T04:51:03.571Z,10.03
2018-07-22T04:53:31.667Z,9.90
2018-07-22T04:55:59.730Z,9.90
2018-07-22T04:58:27.848Z,11.13
2018-07-22T05:00:55.927Z,9.47
2018-07-22T05:03:24.023Z,8.93
2018-07-22T05:05:52.163Z,12.03
2018-07-22T05:08:20.327Z,10.30
2018-07-22T05:10:48.587Z,10.47
2018-07-22T05:13:16.661Z,8.90
2018-07-22T05:15:44.747Z,8.37
2018-07-22T05:18:12.831Z,10.40
2018-07-22T05:20:41.080Z,9.93
2018-07-22T05:23:09.241Z,11.50
2018-07-22T05:25:37.345Z,11.57
2018-07-22T05:28:05.435Z,12.80
2018-07-22T05:30:33.514Z,13.60
2018-07-22T05:33:01.587Z,13.40
2018-07-22T05:35:29.683Z,13.37
2018-07-22T05:38:04.168Z,13.03
2018-07-22T05:40:32.287Z,12.47
2018-07-22T05:43:00.383Z,14.90
2018-07-22T05:45:28.487Z,11.30
2018-07-22T05:47:56.568Z,12.83
2018-07-22T05:50:24.679Z,13.20
2018-07-22T05:52:52.775Z,14.23
2018-07-22T05:55:20.940Z,13.50
2018-07-22T05:57:49.094Z,12.73
2018-07-22T06:00:17.385Z,12.13
2018-07-22T06:02:45.462Z,14.17
2018-07-22T06:05:13.996Z,13.97
2018-07-22T06:07:42.282Z,13.20
2018-07-22T06:10:10.631Z,16.20
2018-07-22T06:12:38.719Z,15.33
2018-07-22T06:15:07.895Z,16.07
2018-07-22T06:17:36.057Z,13.60
2018-07-22T06:20:04.458Z,15.83
2018-07-22T06:22:32.558Z,13.87
2018-07-22T06:25:00.653Z,14.03
2018-07-22T06:27:28.724Z,16.63
2018-07-22T06:29:57.123Z,13.07
2018-07-22T06:32:25.241Z,13.10
2018-07-22T06:34:53.326Z,14.03
2018-07-22T06:37:21.418Z,12.70
2018-07-22T06:39:49.526Z,13.00
2018-07-22T06:42:17.617Z,14.03
2018-07-22T06:44:45.705Z,13.20
2018-07-22T06:47:13.772Z,12.47
2018-07-22T06:49:41.868Z,13.10
2018-07-22T06:52:09.948Z,10.87
2018-07-22T06:54:38.173Z,13.90
2018-07-22T06:57:06.258Z,13.63
2018-07-22T06:59:34.358Z,12.93
2018-07-22T07:02:02.455Z,12.37
2018-07-22T07:04:30.539Z,12.63
2018-07-22T07:06:58.619Z,11.90
2018-07-22T07:09:26.710Z,12.23
2018-07-22T07:11:54.786Z,11.87
2018-07-22T07:14:22.983Z,16.60
2018-07-22T07:16:51.080Z,13.30
2018-07-22T07:19:19.174Z,13.67
2018-07-22T07:21:47.279Z,14.87
2018-07-22T07:24:15.347Z,13.67
2018-07-22T07:26:43.437Z,12.97
2018-07-22T07:29:11.491Z,13.50
2018-07-22T07:31:39.784Z,13.83
2018-07-22T07:34:09.849Z,13.37
2018-07-22T07:36:38.403Z,13.90
2018-07-22T07:39:09.324Z,13.20
2018-07-22T07:41:37.621Z,12.50
2018-07-22T07:44:05.705Z,13.90
2018-07-22T07:46:33.811Z,13.73
2018-07-22T07:49:01.904Z,13.80
2018-07-22T07:51:30.081Z,14.10
2018-07-22T07:53:58.230Z,14.57
2018-07-22T07:56:26.368Z,14.43
2018-07-22T07:58:54.493Z,15.43
2018-07-22T08:01:22.611Z,15.30
2018-07-22T08:03:50.754Z,14.20
2018-07-22T08:06:18.794Z,13.83
2018-07-22T08:08:46.867Z,14.80
2018-07-22T08:11:14.967Z,14.57
2018-07-22T08:13:43.239Z,17.07
2018-07-22T08:16:11.331Z,16.90
2018-07-22T08:18:39.434Z,15.93
2018-07-22T08:21:07.572Z,15.33
2018-07-22T08:23:35.667Z,14.90
2018-07-22T08:26:03.814Z,16.60
2018-07-22T08:28:43.028Z,12.50
2018-07-22T08:31:11.221Z,18.13
2018-07-22T08:33:39.319Z,18.13
2018-07-22T08:36:07.431Z,18.17
2018-07-22T08:38:35.582Z,19.20
2018-07-22T08:41:03.663Z,18.13
2018-07-22T08:43:31.764Z,17.57
2018-07-22T08:45:59.853Z,17.17
2018-07-22T08:48:28.028Z,15.80
2018-07-22T08:50:56.188Z,17.03
2018-07-22T08:53:24.274Z,15.80
2018-07-22T08:55:52.372Z,14.23
2018-07-22T08:58:20.496Z,14.03
2018-07-22T09:00:48.686Z,17.30
2018-07-22T09:03:16.788Z,14.33
2018-07-22T09:05:45.050Z,14.87
2018-07-22T09:08:13.151Z,15.67
2018-07-22T09:10:41.187Z,14.07
2018-07-22T09:13:09.409Z,15.33
2018-07-22T09:15:37.689Z,15.93
2018-07-22T09:18:05.936Z,15.50
2018-07-22T09:20:33.972Z,16.27
2018-07-22T09:23:02.079Z,14.47
2018-07-22T09:25:30.196Z,14.50
2018-07-22T09:27:58.295Z,13.53
2018-07-22T09:30:26.396Z,15.17
2018-07-22T09:32:54.500Z,13.17
2018-07-22T09:35:25.270Z,13.70
2018-07-22T09:37:53.360Z,13.97
2018-07-22T09:40:21.476Z,13.33
2018-07-22T09:42:49.592Z,12.00
2018-07-22T09:45:17.699Z,11.73
2018-07-22T09:47:52.721Z,11.00
2018-07-22T09:50:20.915Z,11.27
2018-07-22T09:52:50.360Z,11.83
2018-07-22T09:55:18.559Z,12.83
2018-07-22T09:57:46.825Z,13.50
2018-07-22T10:00:19.243Z,13.50
2018-07-22T10:02:48.212Z,10.20
2018-07-22T10:05:16.585Z,10.90
2018-07-22T10:07:44.791Z,12.47
2018-07-22T10:10:12.976Z,9.67
2018-07-22T10:12:41.300Z,10.80
2018-07-22T10:15:10.149Z,10.13
2018-07-22T10:17:38.532Z,12.83
2018-07-22T10:20:07.032Z,12.30
2018-07-22T10:22:35.431Z,10.77
2018-07-22T10:25:03.603Z,12.33
2018-07-22T10:27:31.739Z,10.80
2018-07-22T10:29:59.836Z,8.63
2018-07-22T10:32:28.073Z,10.83
2018-07-22T10:34:56.172Z,8.70
2018-07-22T10:37:24.266Z,8.00
2018-07-22T10:39:52.737Z,8.10
2018-07-22T10:42:21.781Z,10.30
2018-07-22T10:44:51.474Z,14.90
2018-07-22T10:47:19.624Z,9.93
2018-07-22T10:49:47.839Z,8.80
2018-07-22T10:52:16.034Z,8.50
2018-07-22T10:54:44.131Z,8.90
2018-07-22T10:57:12.381Z,9.37
2018-07-22T10:59:40.787Z,9.03
2018-07-22T11:02:09.059Z,7.70
2018-07-22T11:04:37.281Z,8.77
2018-07-22T11:07:05.517Z,7.13
2018-07-22T11:09:33.700Z,9.70
2018-07-22T11:12:01.916Z,11.57
2018-07-22T11:14:30.048Z,9.60
2018-07-22T11:16:58.344Z,7.37
2018-07-22T11:19:26.456Z,7.73
2018-07-22T11:21:54.552Z,7.37
2018-07-22T11:24:22.657Z,7.50
2018-07-22T11:26:50.747Z,7.00
2018-07-22T11:29:18.816Z,7.70
2018-07-22T11:31:46.906Z,8.20
2018-07-22T11:34:15.003Z,7.80
2018-07-22T11:36:43.130Z,7.87
2018-07-22T11:39:12.262Z,7.67
2018-07-22T11:41:40.929Z,7.20
2018-07-22T11:44:09.661Z,7.60
2018-07-22T11:46:38.755Z,7.30
2018-07-22T11:49:07.328Z,7.43
2018-07-22T11:51:35.723Z,7.47
2018-07-22T11:54:04.017Z,8.43
2018-07-22T11:56:32.122Z,7.53
2018-07-22T11:59:00.211Z,7.90
2018-07-22T12:01:28.412Z,7.00
2018-07-22T12:03:56.439Z,6.97
2018-07-22T12:06:24.612Z,7.63
2018-07-22T12:08:52.696Z,6.40
2018-07-22T12:11:20.823Z,8.10
2018-07-22T12:13:48.945Z,6.80
2018-07-22T12:16:16.994Z,6.87
2018-07-22T12:18:45.075Z,6.50
2018-07-22T12:21:13.161Z,6.80
2018-07-22T12:23:41.247Z,7.10
2018-07-22T12:26:09.358Z,6.83
2018-07-22T12:28:37.427Z,6.50
2018-07-22T12:31:05.503Z,7.80
2018-07-22T12:33:33.588Z,7.47
2018-07-22T12:36:01.660Z,6.90
2018-07-22T12:38:29.734Z,6.80
2018-07-22T12:40:57.851Z,7.23
2018-07-22T12:43:25.920Z,7.50
2018-07-22T12:45:54.115Z,8.70
2018-07-22T12:48:22.252Z,8.27
2018-07-22T12:50:50.329Z,9.00
2018-07-22T12:53:18.467Z,11.30
2018-07-22T12:55:46.539Z,9.63
2018-07-22T12:58:14.714Z,11.70
2018-07-22T13:00:42.882Z,11.60
2018-07-22T13:03:10.984Z,11.20
2018-07-22T13:05:39.067Z,10.33
2018-07-22T13:08:07.525Z,10.10
2018-07-22T13:10:35.603Z,9.73
2018-07-22T13:13:03.699Z,8.30
2018-07-22T13:15:31.811Z,8.57
2018-07-22T13:17:59.918Z,9.57
2018-07-22T13:20:28.015Z,7.97
2018-07-22T13:22:56.144Z,9.53
2018-07-22T13:25:24.229Z,10.70
2018-07-22T13:27:52.595Z,10.40
2018-07-22T13:30:20.693Z,15.00
2018-07-22T13:32:48.803Z,13.50
2018-07-22T13:35:16.917Z,8.53
2018-07-22T13:37:44.996Z,8.33
2018-07-22T13:40:13.084Z,9.20
2018-07-22T13:42:41.180Z,10.20
2018-07-22T13:45:09.359Z,10.63
2018-07-22T13:47:37.483Z,11.73
2018-07-22T13:50:05.682Z,11.53
2018-07-22T13:52:33.870Z,12.30
2018-07-22T13:55:01.975Z,8.53
2018-07-22T13:57:30.220Z,6.60
2018-07-22T13:59:58.332Z,6.23
2018-07-22T14:02:26.519Z,7.47
2018-07-22T14:04:54.632Z,6.47
2018-07-22T14:07:22.787Z,6.60
2018-07-22T14:09:51.033Z,7.20
2018-07-22T14:12:19.708Z,5.87
2018-07-22T14:14:48.574Z,5.70
2018-07-22T14:17:17.059Z,6.93
2018-07-22T14:19:45.689Z,6.70
2018-07-22T14:22:14.175Z,6.50
2018-07-22T14:24:42.316Z,8.30
2018-07-22T14:27:11.816Z,6.43
2018-07-22T14:29:40.338Z,6.80
2018-07-22T14:32:08.607Z,9.00
2018-07-22T14:34:36.755Z,8.03
2018-07-22T14:37:05.003Z,9.13
2018-07-22T14:39:33.276Z,7.43
2018-07-22T14:42:01.503Z,8.73
2018-07-22T14:44:30.865Z,7.80
2018-07-22T14:46:59.388Z,8.23
2018-07-22T14:49:27.678Z,8.93
2018-07-22T14:51:56.389Z,10.10
2018-07-22T14:54:24.821Z,10.10
2018-07-22T14:56:53.858Z,10.40
2018-07-22T14:59:22.313Z,12.03
2018-07-22T15:01:50.751Z,11.33
2018-07-22T15:04:40.456Z,10.87
2018-07-22T15:07:08.780Z,10.63
2018-07-22T15:09:37.914Z,11.30
2018-07-22T15:12:06.334Z,10.50
2018-07-22T15:14:34.712Z,9.70
2018-07-22T15:17:02.961Z,10.57
2018-07-22T15:19:31.147Z,11.43
2018-07-22T15:22:00.205Z,10.33
2018-07-22T15:24:28.449Z,11.33
2018-07-22T15:26:57.578Z,11.93
2018-07-22T15:29:26.274Z,11.03
2018-07-22T15:31:54.724Z,10.37
2018-07-22T15:34:22.949Z,9.73
2018-07-22T15:36:51.087Z,10.13
2018-07-22T15:39:19.254Z,10.53
2018-07-22T15:41:47.349Z,10.83
2018-07-22T15:44:15.505Z,9.20
2018-07-22T15:46:43.598Z,10.17
2018-07-22T15:49:11.722Z,9.63
2018-07-22T15:51:39.841Z,9.20
2018-07-22T15:54:08.024Z,9.60
2018-07-22T15:56:36.239Z,9.13
2018-07-22T15:59:04.415Z,9.10
2018-07-22T16:01:33.847Z,9.80
2018-07-22T16:04:01.976Z,10.10
2018-07-22T16:06:30.144Z,11.50
2018-07-22T16:08:58.611Z,10.20
2018-07-22T16:11:26.996Z,9.30
2018-07-22T16:13:55.203Z,10.40
2018-07-22T16:16:59.802Z,10.00
2018-07-22T16:19:27.883Z,10.50
2018-07-22T16:21:56.012Z,10.60
2018-07-22T16:24:24.135Z,10.60
2018-07-22T16:26:52.200Z,10.20
2018-07-22T16:29:20.415Z,9.17
2018-07-22T16:31:48.569Z,10.43
2018-07-22T16:34:16.724Z,9.07
2018-07-22T16:36:46.809Z,10.10
2018-07-22T16:39:14.899Z,10.03
2018-07-22T16:41:43.657Z,9.90
2018-07-22T16:44:11.848Z,10.00
2018-07-22T16:46:40.083Z,10.77
2018-07-22T16:49:08.166Z,9.83
2018-07-22T16:51:43.604Z,10.77
2018-07-22T16:54:11.715Z,10.80
2018-07-22T16:56:39.823Z,9.97
2018-07-22T16:59:07.958Z,9.57
2018-07-22T17:01:36.067Z,9.60
2018-07-22T17:04:04.267Z,8.50
2018-07-22T17:09:28.465Z,8.80
2018-07-22T17:11:56.616Z,12.60
2018-07-22T17:14:24.723Z,9.87
2018-07-22T17:16:52.807Z,10.63
2018-07-22T17:19:21.035Z,8.83
2018-07-22T17:21:49.279Z,8.67
2018-07-22T17:24:18.399Z,8.60
2018-07-22T17:26:46.551Z,6.77
2018-07-22T17:29:14.672Z,8.87
2018-07-22T17:31:42.743Z,8.53
2018-07-22T17:34:10.879Z,9.63
2018-07-22T17:36:39.040Z,8.63
2018-07-22T17:39:08.855Z,8.40
2018-07-22T17:41:37.106Z,8.83
2018-07-22T17:44:05.504Z,9.03
2018-07-22T17:46:33.820Z,8.90
2018-07-22T17:49:02.051Z,8.67
2018-07-22T17:51:30.160Z,9.37
2018-07-22T17:53:58.262Z,7.73
2018-07-22T17:56:26.572Z,7.83
2018-07-22T17:58:54.677Z,7.47
2018-07-22T18:01:22.804Z,9.00
2018-07-22T18:03:50.876Z,7.47
2018-07-22T18:06:18.978Z,8.33
2018-07-22T18:08:47.552Z,9.57
2018-07-22T18:11:15.790Z,8.37
2018-07-22T18:13:44.540Z,8.23
2018-07-22T18:16:12.736Z,9.17
2018-07-22T18:18:42.093Z,7.43
2018-07-22T18:21:12.127Z,8.30
2018-07-22T18:23:40.293Z,8.77
2018-07-22T18:26:09.443Z,7.87
2018-07-22T18:28:37.847Z,8.13
2018-07-22T18:31:06.044Z,9.10
2018-07-22T18:33:34.534Z,9.20
2018-07-22T18:36:03.975Z,9.37
2018-07-22T18:38:32.952Z,8.87
2018-07-22T18:41:03.331Z,8.50
2018-07-22T18:43:32.280Z,8.23
2018-07-22T18:46:01.439Z,8.40
2018-07-22T18:48:30.119Z,7.83
2018-07-22T18:50:59.845Z,8.60
2018-07-22T18:53:28.048Z,8.40
2018-07-22T18:55:56.235Z,9.07
2018-07-22T18:58:24.568Z,9.80
2018-07-22T19:00:52.810Z,9.53
2018-07-22T19:03:21.847Z,9.10
2018-07-22T19:05:50.068Z,8.97
2018-07-22T19:08:18.234Z,9.30
2018-07-22T19:10:46.432Z,8.27
2018-07-22T19:13:14.730Z,9.43
2018-07-22T19:15:42.878Z,11.50
2018-07-22T19:18:11.095Z,9.07
2018-07-22T19:20:39.403Z,9.30
2018-07-22T19:23:08.360Z,9.20
2018-07-22T19:25:36.814Z,9.33
2018-07-22T19:28:05.985Z,10.50
2018-07-22T19:30:34.170Z,9.17
2018-07-22T19:33:02.347Z,9.53
2018-07-22T19:35:30.480Z,9.97
2018-07-22T19:37:59.411Z,9.67
2018-07-22T19:40:27.607Z,8.97
2018-07-22T19:43:30.608Z,8.97
2018-07-22T19:46:16.887Z,8.70
2018-07-22T19:48:45.189Z,10.60
2018-07-22T19:51:14.699Z,10.83
2018-07-22T19:53:43.801Z,10.20
2018-07-22T19:56:23.656Z,10.23
2018-07-22T19:58:54.800Z,13.30
2018-07-22T20:01:22.937Z,9.47
2018-07-22T20:03:52.794Z,10.50
2018-07-22T20:06:21.386Z,11.10
2018-07-22T20:08:50.550Z,10.80
2018-07-22T20:11:21.061Z,11.50
2018-07-22T20:16:37.306Z,12.00
2018-07-22T20:19:37.966Z,12.70
2018-07-22T20:22:15.340Z,12.93
2018-07-22T20:24:55.005Z,10.77
2018-07-22T20:28:04.139Z,12.10
2018-07-22T20:30:47.717Z,11.57
2018-07-22T20:33:17.622Z,11.30
2018-07-22T20:36:21.258Z,12.87
2018-07-22T20:39:22.325Z,10.63
2018-07-22T20:41:54.589Z,10.37
2018-07-22T20:44:38.630Z,11.30
2018-07-22T20:47:09.179Z,12.57
2018-07-22T20:58:26.973Z,13.13
2018-07-22T21:00:58.284Z,12.80
2018-07-22T21:03:27.331Z,14.30
2018-07-22T21:05:57.948Z,14.43
2018-07-22T21:08:29.706Z,12.93
2018-07-22T21:11:03.118Z,13.80
2018-07-22T21:13:35.267Z,12.27
2018-07-22T21:16:04.976Z,12.87
2018-07-22T21:18:33.737Z,13.17
2018-07-22T21:21:03.684Z,14.10
2018-07-22T21:23:33.665Z,13.53
2018-07-22T21:26:04.587Z,13.93
2018-07-22T21:28:35.031Z,13.50
2018-07-22T21:31:07.310Z,13.53
2018-07-22T21:36:26.196Z,12.07
2018-07-22T21:39:05.468Z,14.20
2018-07-22T21:41:34.226Z,12.73
2018-07-22T21:44:04.729Z,13.70
2018-07-22T21:46:33.302Z,13.17
2018-07-22T21:49:06.370Z,14.37
2018-07-22T21:54:22.956Z,15.00
2018-07-22T21:56:51.107Z,14.90
2018-07-22T21:59:23.488Z,13.50
2018-07-22T22:02:04.670Z,14.33
2018-07-22T22:04:41.542Z,14.23
2018-07-22T22:07:34.824Z,14.20
2018-07-22T22:10:08.407Z,13.17
2018-07-22T22:12:37.115Z,14.83
2018-07-22T22:15:15.920Z,14.23
2018-07-22T22:17:45.878Z,14.90
2018-07-22T22:20:23.256Z,13.50
2018-07-22T22:22:55.386Z,12.90
2018-07-22T22:25:23.527Z,13.50
2018-07-22T22:27:51.731Z,13.70
2018-07-22T22:30:21.737Z,13.17
2018-07-22T22:33:04.244Z,13.30
2018-07-22T22:35:39.364Z,13.23
2018-07-22T22:38:27.463Z,13.73
2018-07-22T22:41:15.829Z,12.83
2018-07-22T22:46:22.646Z,13.50
2018-07-22T22:48:53.355Z,13.00
2018-07-22T22:51:21.649Z,14.03
2018-07-22T22:53:54.223Z,14.13
2018-07-22T22:56:24.281Z,14.30
2018-07-22T22:59:03.768Z,13.10
2018-07-22T23:01:32.682Z,12.73
2018-07-22T23:04:00.755Z,12.10
2018-07-22T23:06:28.886Z,13.67
2018-07-22T23:08:56.966Z,13.80
2018-07-22T23:11:25.063Z,13.43
2018-07-22T23:13:53.153Z,13.90
2018-07-22T23:16:21.247Z,12.60
2018-07-22T23:18:49.385Z,13.33
2018-07-22T23:21:17.487Z,13.33
2018-07-22T23:23:45.670Z,12.17
2018-07-22T23:26:13.772Z,10.90
2018-07-22T23:28:41.867Z,12.00
2018-07-22T23:31:09.961Z,11.10
2018-07-22T23:33:38.079Z,12.87
2018-07-22T23:36:06.186Z,12.83
2018-07-22T23:38:34.275Z,11.60
2018-07-22T23:41:02.363Z,11.47
2018-07-22T23:43:30.459Z,11.97
2018-07-22T23:45:58.546Z,11.20
2018-07-22T23:48:26.636Z,11.57
2018-07-22T23:50:54.724Z,12.30
2018-07-22T23:53:22.826Z,11.57
2018-07-22T23:55:50.898Z,11.50
2018-07-22T23:58:19.014Z,11.57
